Norden-Norddeich Airport

EDWS · 下萨克森, 德国

使用的TAF站离机场有27 km的距离
2024年2月23日 13:002024年2月23日 22:00有效
时间
星期五
13:00
40%
星期五
14:00
40%
星期五
15:00
40%
星期五
16:00
40%
星期五
17:00
40%
星期五
18:00
40%
星期五
19:00
星期五
20:00
星期五
21:00
代码
MVFR
MVFR
MVFR
MVFR
MVFR
MVFR
VFR
VFR
VFR
天气
天空晴朗
天空晴朗
天空晴朗
天空晴朗
天空晴朗
天空晴朗
天空晴朗
天空晴朗
天空晴朗
能见度
10 km+
10 km+
10 km+
10 km+
10 km+
10 km+
10 km+
10 km+
10 km+
天花板
-
-
-
-
-
-
-
-
-
220°
220°
220°
220°
220°
220°
190°
190°
190°
190°
190°
190°
190°
190°
190°
190°
190°
190°
速度
20 kt
20 kt
20 kt
15 kt
15 kt
11 kt
11 kt
11 kt
11 kt
阵风
35 kt
35 kt
35 kt
25 kt
25 kt
温度/星期日
17:55

原版的

TAF EDWE 231100Z 2312/2321 23015G25KT 9999 SCT025
TEMPO 2312/2315 22020G35KT
PROB40 TEMPO 2312/2318 SHRA BKN014CB
BECMG 2315/2317 19011KT

TAF Norden-Norddeich Airport

Norden-Norddeich Airport是,德国中的小机场。 该机场位于纬度53,63306和经度7,19028。 该机场有一条跑道: 16/34. 本场的ICAO机场代码为EDWS。 该机场的IATA代码为NOD。 机场在Bremen FIR中。

该航空气象观测是针对Emden Airport在2024年2月23日 12:00, 当地时间进行的。 从2024年2月23日 13:00到2024年2月23日 22:00, 当地时间有效.

预报

  • 在星期五 13:00和22:00之间

    • 风: 风来自230°方向,速度为15 kt。 预计25 kt阵风。
    • 能见度: 10 km 或者更多
    • 乌云: 疏云,零星散落的云朵在2.500 ft的高度.
  • 暂时在星期五 13:00和16:00之间

    • 风: 风来自220°方向,速度为20 kt。 预计35 kt阵风。
  • 暂时在星期五 13:00和19:00之间 ({一个机会)

    • 乌云: 碎云 积雨云在1.400 ft的高度.
  • 介于星期五 16:00和18:00之间

    • 风: 风来自190°方向,速度为11 kt。

白天

今天,太阳从07:33升起,在17:55降落。 这适用于Norden-Norddeich Airport,世界夏令时可能有所不同。 当地时间与世界标准时间之间的时差为+1 小时。 当前,没有夏令时有效。